METAR AND TAF INFORMATION
METAR FOR OMDB
ADDS - METARS form results

(2228 UTC 24 April 2018)
Data provider http://aviationweather.gov/adds/metars/
 
METAR text: OMDB 242200Z 34006KT 290V030 CAVOK 28/22 Q1009 NOSIG
Conditions at: OMDB (DUBAI INTL AIRPO, AE) observed 2200 UTC 24 April 2018
Temperature: 28.0°C (82°F)
Dewpoint: 22.0°C (72°F) [RH = 70%]
Pressure (altimeter): 29.79 inches Hg (1009.0 mb)
Winds: from the NNW (340 degrees) at 7 MPH (6 knots; 3.1 m/s)
Visibility: 6 or more miles (10+ km)
Ceiling: ceiling and visibility are OK
Clouds: unknown
Weather: no significant weather observed at this time

Forecast for: OMDB (DUBAI INTL AIRPO, AE)
Text: TAF OMDB 241654Z 2418/2600 VRB02KT CAVOK
Forecast period: 1800 UTC 24 April 2018 to 0700 UTC 25 April 2018
Forecast type: FROM: standard forecast or significant change
Winds: variable direction winds at 2 MPH (2 knots; 1.0 m/s)
Visibility: 6 or more miles (10+ km)
Clouds: not forecast
Weather: NSW  (no significant weather)
Forecast for: OMDB (DUBAI INTL AIRPO, AE)
Text: TAF OMDB 241654Z 2418/2600 VRB02KT CAVOK
Forecast period: 1800 UTC 24 April 2018 to 0700 UTC 25 April 2018
Forecast type: FROM: standard forecast or significant change
Winds: variable direction winds at 2 MPH (2 knots; 1.0 m/s)
Visibility: 6 or more miles (10+ km)
Clouds: not forecast
Weather: NSW  (no significant weather)
Forecast for: OMDB (DUBAI INTL AIRPO, AE)
Text: TAF OMDB 241654Z 2418/2600 VRB02KT CAVOK
Forecast period: 0700 to 1500 UTC 25 April 2018
Forecast type: BECOMING: Conditions expected to become as follows by 0900 UTC 25 April 2018
Winds: from the NW (320 degrees) at 17 MPH (15 knots; 7.8 m/s)
Visibility: 6 or more miles (10+ km)
Weather: NSW  (no significant weather)
Forecast for: OMDB (DUBAI INTL AIRPO, AE)
Text: TAF OMDB 241654Z 2418/2600 VRB02KT CAVOK
Forecast period: 0700 to 1500 UTC 25 April 2018
Forecast type: BECOMING: Conditions expected to become as follows by 0900 UTC 25 April 2018
Winds: from the NW (320 degrees) at 17 MPH (15 knots; 7.8 m/s)
Visibility: 6 or more miles (10+ km)
Weather: NSW  (no significant weather)
Forecast for: OMDB (DUBAI INTL AIRPO, AE)
Text: TAF OMDB 241654Z 2418/2600 VRB02KT CAVOK
Forecast period: 1500 UTC 25 April 2018 to 0000 UTC 26 April 2018
Forecast type: BECOMING: Conditions expected to become as follows by 1700 UTC 25 April 2018
Winds: from the E (100 degrees) at 6 MPH (5 knots; 2.6 m/s)
Visibility: 6 or more miles (10+ km)
Weather: NSW  (no significant weather)
Forecast for: OMDB (DUBAI INTL AIRPO, AE)
Text: TAF OMDB 241654Z 2418/2600 VRB02KT CAVOK
Forecast period: 1500 UTC 25 April 2018 to 0000 UTC 26 April 2018
Forecast type: BECOMING: Conditions expected to become as follows by 1700 UTC 25 April 2018
Winds: from the E (100 degrees) at 6 MPH (5 knots; 2.6 m/s)
Visibility: 6 or more miles (10+ km)
Weather: NSW  (no significant weather)

 AIRPORT MAP

 RUNWAY INFORMATION
Runway 12L Runway length 13124 ft Runway width 197 ft
Runway elevation 13 ft Runway displaced threshold 1312 ft Runway heading 122
Runway 30R Runway length 13124 ft Runway width 197 ft
Runway elevation 34 ft Runway displaced threshold 0 ft Runway heading 302
Runway 12R Runway length 13124 ft Runway width 151 ft
Runway elevation 13 ft Runway displaced threshold 394 ft Runway heading 121
Runway 30L Runway length 13124 ft Runway width 151 ft
Runway elevation 34 ft Runway displaced threshold 2953 ft Runway heading 301

 AIRPORT FREQUENCIES
Type ARR Name ARR Frequency 124.9 MHZ
Type ATIS Name ATIS Frequency 131.7 MHZ
Type DEP Name DEP Frequency 124.45 MHZ
Type GND Name GND Frequency 118.35 MHZ
Type TWR Name TWR Frequency 118.75 MHZ

 AIRPORT NEAR NAVIGATION AIDS
Type VOR-DME Name Dubai Frequency 115700 KHZ



Powered by Virtual Airlines Manager [v2.6.2]